As Olivia — DYQC — position and weather

sailwx.info

Track history (hours):
 
Tides and Currents Weather Stations Pressure Air Temp Water Temp Dewpoint Dewpoint Depression Visibility Wind Speed Wind Dir Waves Ship Positions

As Olivia

Last reported at 2014-Sep-29 12:31 UTC. Time now 2014-Oct-01 08:19 UTC.
Position N 25°39' W 079°45'.

Length 146 m; draft 6.1 m.

Type: Ship (hazmat cat B). MMSI: 548767000.

Date/timePositionNaut miles runAvg speedWind from/ knotsBaromVisibWave heightAir tempDewpointWater temp
2014-Sep-29 12:31N 25°39' W 079°45'1111.1
2014-Sep-29 11:33N 25°50' W 079°45'1111.0
2014-Sep-29 10:33N 26°01' W 079°45'1111.2
2014-Sep-29 09:33N 26°12' W 079°45'1111.3
2014-Sep-29 08:33N 26°24' W 079°45'1111.4
2014-Sep-29 07:33N 26°35' W 079°45'1211.9
2014-Sep-29 06:32N 26°47' W 079°45'1211.9
2014-Sep-29 05:33N 26°59' W 079°45'  
2014-Sep-26 21:28N 38°23' W 072°60'1414.7
2014-Sep-26 20:29N 38°37' W 073°00'3115.0
2014-Sep-26 18:24N 39°09' W 073°01'1515.2
2014-Sep-26 17:23N 39°24' W 073°00'1614.6
2014-Sep-26 16:18N 39°40' W 073°00'1114.1
2014-Sep-26 15:33N 39°48' W 073°09'1414.2
2014-Sep-26 14:33N 39°59' W 073°20'1313.4
2014-Sep-26 13:33N 40°10' W 073°31'1413.6
2014-Sep-26 12:33N 40°20' W 073°42'1211.8
2014-Sep-26 11:33N 40°28' W 073°53'1010.4
2014-Sep-26 10:34N 40°36' W 074°02'4 3.7
2014-Sep-26 09:33N 40°39' W 074°05'0 0.0
2014-Sep-26 08:33N 40°39' W 074°05'0 0.0
2014-Sep-26 07:32N 40°39' W 074°05'0 0.0
2014-Sep-26 06:33N 40°39' W 074°05'0 0.0
2014-Sep-26 05:33N 40°39' W 074°05'0 0.0
2014-Sep-26 04:32N 40°39' W 074°05'0 0.0
2014-Sep-26 03:32N 40°39' W 074°05'0 0.0
2014-Sep-26 02:31N 40°39' W 074°05'0 0.0
2014-Sep-26 01:11N 40°39' W 074°05'0 0.0
2014-Sep-25 19:33N 40°39' W 074°05'0 0.0
2014-Sep-25 18:27N 40°39' W 074°05'0 0.0
2014-Sep-25 17:32N 40°39' W 074°05'0 0.0
2014-Sep-25 16:25N 40°39' W 074°05'0 0.0
2014-Sep-25 15:33N 40°39' W 074°05'0 0.0
2014-Sep-25 12:33N 40°39' W 074°05'0 0.0
2014-Sep-25 11:33N 40°39' W 074°05'0 0.0
2014-Sep-25 10:33N 40°39' W 074°05'0 0.0
2014-Sep-25 09:33N 40°39' W 074°05'0 0.0
2014-Sep-25 08:33N 40°39' W 074°05'0 0.0
2014-Sep-25 07:33N 40°39' W 074°05'0 0.0
2014-Sep-25 06:33N 40°39' W 074°05'0 0.0
2014-Sep-25 05:33N 40°39' W 074°05'0 0.0
2014-Sep-25 04:33N 40°39' W 074°05'0 0.0
2014-Sep-25 03:33N 40°39' W 074°05'0 0.0
2014-Sep-25 02:33N 40°39' W 074°05'0 0.0
2014-Sep-25 01:33N 40°39' W 074°05'0 0.0
2014-Sep-25 00:33N 40°39' W 074°05'0 0.0
2014-Sep-24 23:33N 40°39' W 074°05'0 0.0
2014-Sep-24 22:33N 40°39' W 074°05'0 0.0
2014-Sep-24 21:33N 40°39' W 074°05'0 0.0
2014-Sep-24 20:33N 40°39' W 074°05'0 0.0
2014-Sep-24 19:33N 40°39' W 074°05'0 0.0
2014-Sep-24 18:33N 40°39' W 074°05'4 3.6
2014-Sep-24 17:33N 40°36' W 074°02'9 9.0
2014-Sep-24 16:33N 40°29' W 073°55'8 7.7
2014-Sep-24 15:33N 40°28' W 073°45'3 2.7
2014-Sep-24 14:25N 40°29' W 073°41'0 0.0
2014-Sep-24 13:31N 40°29' W 073°41'0 0.0
2014-Sep-24 12:31N 40°29' W 073°41'0 0.0
2014-Sep-24 11:31N 40°29' W 073°41'0 0.0
2014-Sep-24 10:31N 40°29' W 073°41'0 0.0
2014-Sep-24 09:28N 40°29' W 073°41'0 0.0
2014-Sep-24 08:28N 40°29' W 073°41'0 0.1
2014-Sep-24 07:16N 40°29' W 073°41'0 0.0
2014-Sep-24 06:31N 40°29' W 073°41'0 0.0
2014-Sep-24 05:19N 40°29' W 073°41'0 0.0
2014-Sep-24 01:31N 40°29' W 073°41'0 0.0
2014-Sep-24 00:31N 40°29' W 073°41'0 0.0
2014-Sep-23 22:22N 40°29' W 073°41'0 0.0
2014-Sep-23 20:22N 40°29' W 073°41'0 0.0
2014-Sep-23 19:25N 40°29' W 073°41'0 0.0
2014-Sep-23 18:10N 40°29' W 073°41'0 0.1
2014-Sep-23 17:16N 40°29' W 073°41'0 0.0
2014-Sep-23 14:28N 40°29' W 073°41'0 0.0
2014-Sep-23 13:22N 40°29' W 073°41'0 0.0
2014-Sep-23 12:16N 40°29' W 073°41'0 0.0
2014-Sep-23 11:22N 40°29' W 073°41'0 0.0
2014-Sep-23 10:31N 40°29' W 073°41'0 0.0
2014-Sep-23 09:31N 40°29' W 073°41'0 0.0
2014-Sep-23 08:31N 40°29' W 073°41'0 0.0
2014-Sep-23 07:31N 40°29' W 073°41'0 0.0
2014-Sep-23 06:31N 40°29' W 073°41'0 0.0
2014-Sep-23 05:16N 40°29' W 073°41'0 0.0
2014-Sep-23 04:31N 40°29' W 073°41'0 0.0
2014-Sep-23 03:31N 40°29' W 073°41'0 0.0
2014-Sep-23 02:31N 40°29' W 073°41'0 0.0
2014-Sep-23 01:25N 40°29' W 073°41'0 0.0
2014-Sep-23 00:19N 40°29' W 073°41'0 0.0
2014-Sep-22 23:31N 40°29' W 073°41'0 0.0
2014-Sep-22 22:25N 40°29' W 073°41'0 0.0
2014-Sep-22 18:25N 40°29' W 073°41'0 0.0
2014-Sep-22 17:28N 40°29' W 073°41'0 0.0
2014-Sep-22 16:31N 40°29' W 073°41'0 0.0
2014-Sep-22 15:31N 40°29' W 073°41'0 0.0
2014-Sep-22 14:25N 40°29' W 073°41'0 0.0
2014-Sep-22 13:31N 40°29' W 073°41'0 0.0
2014-Sep-22 12:31N 40°29' W 073°41'0 0.0
2014-Sep-22 11:25N 40°29' W 073°41'0 0.0
2014-Sep-22 10:10N 40°29' W 073°41'0 0.0
2014-Sep-22 09:28N 40°29' W 073°41'0 0.0
2014-Sep-22 08:25N 40°29' W 073°41'0 0.0
2014-Sep-22 07:31N 40°29' W 073°41'0 0.1
2014-Sep-22 06:31N 40°29' W 073°41'0 0.0
2014-Sep-22 05:19N 40°29' W 073°41'0 0.0
2014-Sep-22 04:31N 40°30' W 073°41'0 0.0
2014-Sep-22 03:31N 40°29' W 073°41'0 0.0
2014-Sep-22 02:28N 40°30' W 073°41'0 0.0
2014-Sep-22 00:19N 40°30' W 073°41'0 0.0
2014-Sep-21 23:28N 40°30' W 073°41'0 0.0
2014-Sep-21 22:28N 40°30' W 073°41'0 0.0
2014-Sep-21 21:28N 40°30' W 073°41'0 0.0
2014-Sep-21 20:16N 40°30' W 073°41'0 0.0
2014-Sep-21 19:31N 40°30' W 073°41'0 0.0
2014-Sep-21 18:28N 40°30' W 073°41'0 0.0
2014-Sep-21 17:28N 40°30' W 073°41'0 0.0
2014-Sep-21 16:31N 40°30' W 073°41'0 0.0
2014-Sep-21 15:28N 40°30' W 073°41'0 0.0
2014-Sep-21 14:31N 40°30' W 073°41'0 0.0
2014-Sep-21 11:28N 40°30' W 073°41'0 0.0
2014-Sep-21 10:31N 40°30' W 073°41'0 0.0
2014-Sep-21 09:28N 40°30' W 073°41'0 0.0
2014-Sep-21 08:07N 40°30' W 073°41'0 0.0
2014-Sep-21 04:16N 40°30' W 073°41'0 0.0
2014-Sep-21 01:31N 40°30' W 073°41'0 0.0
2014-Sep-20 23:31N 40°30' W 073°41'0 0.0
2014-Sep-20 22:28N 40°30' W 073°41'0 0.0
2014-Sep-20 21:28N 40°30' W 073°41'0 0.0
2014-Sep-20 20:31N 40°30' W 073°41'0 0.0
2014-Sep-20 19:31N 40°30' W 073°41'0 0.0
2014-Sep-20 18:31N 40°30' W 073°41'0 0.0
2014-Sep-20 17:28N 40°30' W 073°41'0 0.0
2014-Sep-20 16:22N 40°30' W 073°41'0 0.0
2014-Sep-20 15:28N 40°30' W 073°41'0 0.0
2014-Sep-20 14:16N 40°30' W 073°41'0 0.0
2014-Sep-20 12:25N 40°29' W 073°41'0 0.0
2014-Sep-20 11:31N 40°30' W 073°41'0 0.0
2014-Sep-20 10:31N 40°29' W 073°41'0 0.0
2014-Sep-20 09:28N 40°29' W 073°41'0 0.0
2014-Sep-20 08:25N 40°29' W 073°41'0 0.0
2014-Sep-20 07:22N 40°29' W 073°41'0 0.0
2014-Sep-20 06:28N 40°29' W 073°41'0 0.0
2014-Sep-20 05:31N 40°29' W 073°41'0 0.0
2014-Sep-20 04:31N 40°29' W 073°41'0 0.0
2014-Sep-20 03:31N 40°29' W 073°41'0 0.0
2014-Sep-20 02:31N 40°29' W 073°41'0 0.0
2014-Sep-20 01:28N 40°29' W 073°41'0 0.0
2014-Sep-20 00:31N 40°29' W 073°41'0 0.0
2014-Sep-19 23:31N 40°29' W 073°41'0 0.0
2014-Sep-19 22:31N 40°29' W 073°41'0 0.0
2014-Sep-19 21:28N 40°29' W 073°41'0 0.0
2014-Sep-19 20:28N 40°29' W 073°41'0 0.1
2014-Sep-19 19:12N 40°29' W 073°41'5 7.4
2014-Sep-19 18:33N 40°27' W 073°47'1110.7
2014-Sep-19 17:33N 40°31' W 073°60'8 7.2
2014-Sep-19 16:28N 40°38' W 074°04'0 0.0
2014-Sep-19 15:31N 40°38' W 074°04'0 0.0
2014-Sep-19 14:19N 40°38' W 074°04'0 0.0
2014-Sep-19 13:31N 40°38' W 074°04'  
Track history (hours):
 
Tides and Currents Weather Stations Pressure Air Temp Water Temp Dewpoint Dewpoint Depression Visibility Wind Speed Wind Dir Waves Ship Positions

As Olivia

Last reported at 2014-Sep-29 12:31 UTC. Time now 2014-Oct-01 08:19 UTC.
Position N 25°39' W 079°45'.

Length 146 m; draft 6.1 m.

Type: Ship (hazmat cat B). MMSI: 548767000.

Date/timePositionNaut miles runAvg speedWind from/ knotsBaromVisibWave heightAir tempDewpointWater temp
2014-Sep-29 12:31N 25°39' W 079°45'1111.1
2014-Sep-29 11:33N 25°50' W 079°45'1111.0
2014-Sep-29 10:33N 26°01' W 079°45'1111.2
2014-Sep-29 09:33N 26°12' W 079°45'1111.3
2014-Sep-29 08:33N 26°24' W 079°45'1111.4
2014-Sep-29 07:33N 26°35' W 079°45'1211.9
2014-Sep-29 06:32N 26°47' W 079°45'1211.9
2014-Sep-29 05:33N 26°59' W 079°45'  
2014-Sep-26 21:28N 38°23' W 072°60'1414.7
2014-Sep-26 20:29N 38°37' W 073°00'3115.0
2014-Sep-26 18:24N 39°09' W 073°01'1515.2
2014-Sep-26 17:23N 39°24' W 073°00'1614.6
2014-Sep-26 16:18N 39°40' W 073°00'1114.1
2014-Sep-26 15:33N 39°48' W 073°09'1414.2
2014-Sep-26 14:33N 39°59' W 073°20'1313.4
2014-Sep-26 13:33N 40°10' W 073°31'1413.6
2014-Sep-26 12:33N 40°20' W 073°42'1211.8
2014-Sep-26 11:33N 40°28' W 073°53'1010.4
2014-Sep-26 10:34N 40°36' W 074°02'4 3.7
2014-Sep-26 09:33N 40°39' W 074°05'0 0.0
2014-Sep-26 08:33N 40°39' W 074°05'0 0.0
2014-Sep-26 07:32N 40°39' W 074°05'0 0.0
2014-Sep-26 06:33N 40°39' W 074°05'0 0.0
2014-Sep-26 05:33N 40°39' W 074°05'0 0.0
2014-Sep-26 04:32N 40°39' W 074°05'0 0.0
2014-Sep-26 03:32N 40°39' W 074°05'0 0.0
2014-Sep-26 02:31N 40°39' W 074°05'0 0.0
2014-Sep-26 01:11N 40°39' W 074°05'0 0.0
2014-Sep-25 19:33N 40°39' W 074°05'0 0.0
2014-Sep-25 18:27N 40°39' W 074°05'0 0.0
2014-Sep-25 17:32N 40°39' W 074°05'0 0.0
2014-Sep-25 16:25N 40°39' W 074°05'0 0.0
2014-Sep-25 15:33N 40°39' W 074°05'0 0.0
2014-Sep-25 12:33N 40°39' W 074°05'0 0.0
2014-Sep-25 11:33N 40°39' W 074°05'0 0.0
2014-Sep-25 10:33N 40°39' W 074°05'0 0.0
2014-Sep-25 09:33N 40°39' W 074°05'0 0.0
2014-Sep-25 08:33N 40°39' W 074°05'0 0.0
2014-Sep-25 07:33N 40°39' W 074°05'0 0.0
2014-Sep-25 06:33N 40°39' W 074°05'0 0.0
2014-Sep-25 05:33N 40°39' W 074°05'0 0.0
2014-Sep-25 04:33N 40°39' W 074°05'0 0.0
2014-Sep-25 03:33N 40°39' W 074°05'0 0.0
2014-Sep-25 02:33N 40°39' W 074°05'0 0.0
2014-Sep-25 01:33N 40°39' W 074°05'0 0.0
2014-Sep-25 00:33N 40°39' W 074°05'0 0.0
2014-Sep-24 23:33N 40°39' W 074°05'0 0.0
2014-Sep-24 22:33N 40°39' W 074°05'0 0.0
2014-Sep-24 21:33N 40°39' W 074°05'0 0.0
2014-Sep-24 20:33N 40°39' W 074°05'0 0.0
2014-Sep-24 19:33N 40°39' W 074°05'0 0.0
2014-Sep-24 18:33N 40°39' W 074°05'4 3.6
2014-Sep-24 17:33N 40°36' W 074°02'9 9.0
2014-Sep-24 16:33N 40°29' W 073°55'8 7.7
2014-Sep-24 15:33N 40°28' W 073°45'3 2.7
2014-Sep-24 14:25N 40°29' W 073°41'0 0.0
2014-Sep-24 13:31N 40°29' W 073°41'0 0.0
2014-Sep-24 12:31N 40°29' W 073°41'0 0.0
2014-Sep-24 11:31N 40°29' W 073°41'0 0.0
2014-Sep-24 10:31N 40°29' W 073°41'0 0.0
2014-Sep-24 09:28N 40°29' W 073°41'0 0.0
2014-Sep-24 08:28N 40°29' W 073°41'0 0.1
2014-Sep-24 07:16N 40°29' W 073°41'0 0.0
2014-Sep-24 06:31N 40°29' W 073°41'0 0.0
2014-Sep-24 05:19N 40°29' W 073°41'0 0.0
2014-Sep-24 01:31N 40°29' W 073°41'0 0.0
2014-Sep-24 00:31N 40°29' W 073°41'0 0.0
2014-Sep-23 22:22N 40°29' W 073°41'0 0.0
2014-Sep-23 20:22N 40°29' W 073°41'0 0.0
2014-Sep-23 19:25N 40°29' W 073°41'0 0.0
2014-Sep-23 18:10N 40°29' W 073°41'0 0.1
2014-Sep-23 17:16N 40°29' W 073°41'0 0.0
2014-Sep-23 14:28N 40°29' W 073°41'0 0.0
2014-Sep-23 13:22N 40°29' W 073°41'0 0.0
2014-Sep-23 12:16N 40°29' W 073°41'0 0.0
2014-Sep-23 11:22N 40°29' W 073°41'0 0.0
2014-Sep-23 10:31N 40°29' W 073°41'0 0.0
2014-Sep-23 09:31N 40°29' W 073°41'0 0.0
2014-Sep-23 08:31N 40°29' W 073°41'0 0.0
2014-Sep-23 07:31N 40°29' W 073°41'0 0.0
2014-Sep-23 06:31N 40°29' W 073°41'0 0.0
2014-Sep-23 05:16N 40°29' W 073°41'0 0.0
2014-Sep-23 04:31N 40°29' W 073°41'0 0.0
2014-Sep-23 03:31N 40°29' W 073°41'0 0.0
2014-Sep-23 02:31N 40°29' W 073°41'0 0.0
2014-Sep-23 01:25N 40°29' W 073°41'0 0.0
2014-Sep-23 00:19N 40°29' W 073°41'0 0.0
2014-Sep-22 23:31N 40°29' W 073°41'0 0.0
2014-Sep-22 22:25N 40°29' W 073°41'0 0.0
2014-Sep-22 18:25N 40°29' W 073°41'0 0.0
2014-Sep-22 17:28N 40°29' W 073°41'0 0.0
2014-Sep-22 16:31N 40°29' W 073°41'0 0.0
2014-Sep-22 15:31N 40°29' W 073°41'0 0.0
2014-Sep-22 14:25N 40°29' W 073°41'0 0.0
2014-Sep-22 13:31N 40°29' W 073°41'0 0.0
2014-Sep-22 12:31N 40°29' W 073°41'0 0.0
2014-Sep-22 11:25N 40°29' W 073°41'0 0.0
2014-Sep-22 10:10N 40°29' W 073°41'0 0.0
2014-Sep-22 09:28N 40°29' W 073°41'0 0.0
2014-Sep-22 08:25N 40°29' W 073°41'0 0.0
2014-Sep-22 07:31N 40°29' W 073°41'0 0.1
2014-Sep-22 06:31N 40°29' W 073°41'0 0.0
2014-Sep-22 05:19N 40°29' W 073°41'0 0.0
2014-Sep-22 04:31N 40°30' W 073°41'0 0.0
2014-Sep-22 03:31N 40°29' W 073°41'0 0.0
2014-Sep-22 02:28N 40°30' W 073°41'0 0.0
2014-Sep-22 00:19N 40°30' W 073°41'0 0.0
2014-Sep-21 23:28N 40°30' W 073°41'0 0.0
2014-Sep-21 22:28N 40°30' W 073°41'0 0.0
2014-Sep-21 21:28N 40°30' W 073°41'0 0.0
2014-Sep-21 20:16N 40°30' W 073°41'0 0.0
2014-Sep-21 19:31N 40°30' W 073°41'0 0.0
2014-Sep-21 18:28N 40°30' W 073°41'0 0.0
2014-Sep-21 17:28N 40°30' W 073°41'0 0.0
2014-Sep-21 16:31N 40°30' W 073°41'0 0.0
2014-Sep-21 15:28N 40°30' W 073°41'0 0.0
2014-Sep-21 14:31N 40°30' W 073°41'0 0.0
2014-Sep-21 11:28N 40°30' W 073°41'0 0.0
2014-Sep-21 10:31N 40°30' W 073°41'0 0.0
2014-Sep-21 09:28N 40°30' W 073°41'0 0.0
2014-Sep-21 08:07N 40°30' W 073°41'0 0.0
2014-Sep-21 04:16N 40°30' W 073°41'0 0.0
2014-Sep-21 01:31N 40°30' W 073°41'0 0.0
2014-Sep-20 23:31N 40°30' W 073°41'0 0.0
2014-Sep-20 22:28N 40°30' W 073°41'0 0.0
2014-Sep-20 21:28N 40°30' W 073°41'0 0.0
2014-Sep-20 20:31N 40°30' W 073°41'0 0.0
2014-Sep-20 19:31N 40°30' W 073°41'0 0.0
2014-Sep-20 18:31N 40°30' W 073°41'0 0.0
2014-Sep-20 17:28N 40°30' W 073°41'0 0.0
2014-Sep-20 16:22N 40°30' W 073°41'0 0.0
2014-Sep-20 15:28N 40°30' W 073°41'0 0.0
2014-Sep-20 14:16N 40°30' W 073°41'0 0.0
2014-Sep-20 12:25N 40°29' W 073°41'0 0.0
2014-Sep-20 11:31N 40°30' W 073°41'0 0.0
2014-Sep-20 10:31N 40°29' W 073°41'0 0.0
2014-Sep-20 09:28N 40°29' W 073°41'0 0.0
2014-Sep-20 08:25N 40°29' W 073°41'0 0.0
2014-Sep-20 07:22N 40°29' W 073°41'0 0.0
2014-Sep-20 06:28N 40°29' W 073°41'0 0.0
2014-Sep-20 05:31N 40°29' W 073°41'0 0.0
2014-Sep-20 04:31N 40°29' W 073°41'0 0.0
2014-Sep-20 03:31N 40°29' W 073°41'0 0.0
2014-Sep-20 02:31N 40°29' W 073°41'0 0.0
2014-Sep-20 01:28N 40°29' W 073°41'0 0.0
2014-Sep-20 00:31N 40°29' W 073°41'0 0.0
2014-Sep-19 23:31N 40°29' W 073°41'0 0.0
2014-Sep-19 22:31N 40°29' W 073°41'0 0.0
2014-Sep-19 21:28N 40°29' W 073°41'0 0.0
2014-Sep-19 20:28N 40°29' W 073°41'0 0.1
2014-Sep-19 19:12N 40°29' W 073°41'5 7.4
2014-Sep-19 18:33N 40°27' W 073°47'1110.7
2014-Sep-19 17:33N 40°31' W 073°60'8 7.2
2014-Sep-19 16:28N 40°38' W 074°04'0 0.0
2014-Sep-19 15:31N 40°38' W 074°04'0 0.0
2014-Sep-19 14:19N 40°38' W 074°04'0 0.0
2014-Sep-19 13:31N 40°38' W 074°04'  

Dump ship's entire track history